Aérodrome :







RETROUVEZ-NOUS SUR...

 
LOGIN :

S'inscrire | Disclaimer

   EN    FR    IT 

 









Légende :    VFR   VFR Marginal   IFR   IFR Intensif   IFR Très Intensif
Visi : 
Plafond : 
>= 8 km
>= 3000ft
5 à 8 km
1000 à 3000 ft
1500m à 5 km
500 à 1000 ft
800 à 1500m
200 à 500 ft
< 800m
< 200 ft
Symboles :   Orages  Brouillard  Fortes neiges  Fortes précipitations  Vent > 20 kt






- Altitude de l'aérodrome : 62 ft
- Code IATA : ANU


TAPA - V C Bird Int.

DERNIER METAR :
  • 060200Z 10003KT 9999 FEW018 SCT036 26/24 Q1016 NOSIG

METARs EXPIRÉS :
  • 060100Z 10003KT 100V160 9999 SCT018 BKN038 26/23 Q1016 NOSIG
  • 060000Z 11003KT 100V160 9999 FEW018 BKN038 26/23 Q1015 NOSIG
  • 052300Z 13003KT 100V160 9999 FEW018 BKN038 26/23 Q1014 NOSIG

TAF TAF TAPA
Valide du 06 à 00h jusqu'au 07 à 00h UTC


052300Z 0600/0624 12006KT 9999 SCT022
PROB30
TEMPO 0613/0620 SHRA



MET'MAP, la Météo Aéronautique d'un coup d'oeil ! - Copyright ORBIFLY Décembre 2007 - Disclaimer

ORBIFLY MET'MAP TEAM :

Programmation & Développement : Alexandra Zaïnal
Sur une idée originale de : Baudouin d'Aumeries
Assistance à la programmation : Marc-Olivier Méhu
Soutien technique & logistique : Manuel Goepfert

Contact : metmap@orbifly.com




SOURCES & CREDITS :

   NOAA